Time;durP1;ratioP1;P1;durP2;ratioP2;P2;SDS_P1;SDS_P2;PMS_P1;PMS_P2;Temp;Humidity;BMP_temperature;BMP_pressure;BME280_temperature;BME280_humidity;BME280_pressure;Samples;Min_cycle;Max_cycle;Signal;HPM_P1;HPM_P2
2023/05/15 00:01:06;;;;;;;;;;;;;;;;;;5049492;28;20007;-61
2023/05/15 00:03:32;;;;;;;;;;;;;;;;;;5052492;28;20061;-61
2023/05/15 00:05:58;;;;;;;;;;;;;;;;;;5051125;28;19928;-61
2023/05/15 00:08:24;;;;;;;;;;;;;;;;;;5052744;28;20019;-61
2023/05/15 00:10:50;;;;;;;;;;;;;;;;;;5051287;28;19971;-61
2023/05/15 00:13:16;;;;;;;;;;;;;;;;;;5053235;28;19929;-59
2023/05/15 00:15:42;;;;;;;;;;;;;;;;;;5050499;28;20376;-60
2023/05/15 00:18:07;;;;;;;;;;;;;;;;;;5058965;28;19925;-60
2023/05/15 00:20:33;;;;;;;;;;;;;;;;;;5050903;28;19966;-60
2023/05/15 00:22:59;;;;;;;;;;;;;;;;;;5031871;28;19921;-60
2023/05/15 00:25:25;;;;;;;;;;;;;;;;;;5050719;28;20581;-60
2023/05/15 00:27:51;;;;;;;;;;;;;;;;;;5050248;28;20386;-60
2023/05/15 00:30:17;;;;;;;;;;;;;;;;;;5030159;28;19982;-60
2023/05/15 00:32:43;;;;;;;;;;;;;;;;;;5015664;28;20305;-60
2023/05/15 00:35:09;;;;;;;;;;;;;;;;;;5050014;28;19920;-60
2023/05/15 00:37:35;;;;;;;;;;;;;;;;;;5033525;28;19924;-60
2023/05/15 00:40:01;;;;;;;;;;;;;;;;;;5049485;28;19960;-61
2023/05/15 00:42:26;;;;;;;;;;;;;;;;;;5050700;28;19921;-61
2023/05/15 00:44:52;;;;;;;;;;;;;;;;;;5040204;28;19926;-60
2023/05/15 00:47:18;;;;;;;;;;;;;;;;;;5049327;28;19928;-60
2023/05/15 00:49:44;;;;;;;;;;;;;;;;;;5027749;28;19935;-60
2023/05/15 00:52:10;;;;;;;;;;;;;;;;;;5050139;28;19924;-61
2023/05/15 00:54:36;;;;;;;;;;;;;;;;;;5050460;28;19970;-61
2023/05/15 00:57:02;;;;;;;;;;;;;;;;;;5031377;28;20394;-61
2023/05/15 00:59:28;;;;;;;;;;;;;;;;;;5047537;28;20008;-61
2023/05/15 01:01:53;;;;;;;;;;;;;;;;;;5033059;28;19971;-63
2023/05/15 01:04:19;;;;;;;;;;;;;;;;;;5032873;28;20373;-61
2023/05/15 01:06:47;;;;;;;;;;;;;;;;;;5050855;28;19925;-61
2023/05/15 01:09:14;;;;;;;;;;;;;;;;;;5028255;28;19968;-60
2023/05/15 01:11:40;;;;;;;;;;;;;;;;;;5050183;28;19971;-61
2023/05/15 01:14:06;;;;;;;;;;;;;;;;;;5031808;28;19925;-61
2023/05/15 01:16:32;;;;;;;;;;;;;;;;;;5031065;28;19927;-61
2023/05/15 01:18:57;;;;;;;;;;;;;;;;;;5051176;28;19964;-61
2023/05/15 01:21:23;;;;;;;;;;;;;;;;;;5049189;28;19966;-61
2023/05/15 01:23:49;;;;;;;;;;;;;;;;;;5050263;28;20340;-60
2023/05/15 01:26:15;;;;;;;;;;;;;;;;;;5050484;28;19921;-61
2023/05/15 01:28:42;;;;;;;;;;;;;;;;;;5051025;28;19960;-61
2023/05/15 01:31:08;;;;;;;;;;;;;;;;;;5050794;28;20016;-61
2023/05/15 01:33:34;;;;;;;;;;;;;;;;;;5052479;28;20000;-61
2023/05/15 01:36:00;;;;;;;;;;;;;;;;;;5036843;28;20398;-61
2023/05/15 01:38:26;;;;;;;;;;;;;;;;;;5049447;28;19938;-61
2023/05/15 01:40:52;;;;;;;;;;;;;;;;;;5052516;28;19921;-61
2023/05/15 01:43:18;;;;;;;;;;;;;;;;;;5053886;28;20004;-61
2023/05/15 01:45:44;;;;;;;;;;;;;;;;;;5054994;28;19920;-61
2023/05/15 01:48:10;;;;;;;;;;;;;;;;;;5051070;28;19971;-61
2023/05/15 01:50:36;;;;;;;;;;;;;;;;;;5051294;28;19956;-60
2023/05/15 01:53:02;;;;;;;;;;;;;;;;;;5055098;28;20066;-60
2023/05/15 01:55:28;;;;;;;;;;;;;;;;;;5057486;28;19921;-60
2023/05/15 01:57:54;;;;;;;;;;;;;;;;;;5055828;28;20012;-61
2023/05/15 02:00:20;;;;;;;;;;;;;;;;;;5054914;28;19924;-60
2023/05/15 02:02:46;;;;;;;;;;;;;;;;;;5054805;28;19971;-60
2023/05/15 02:05:12;;;;;;;;;;;;;;;;;;5053258;28;20411;-60
2023/05/15 02:07:38;;;;;;;;;;;;;;;;;;5053019;28;19920;-60
2023/05/15 02:10:04;;;;;;;;;;;;;;;;;;5043360;28;19929;-60
2023/05/15 02:12:29;;;;;;;;;;;;;;;;;;5035590;28;20024;-60
2023/05/15 02:14:55;;;;;;;;;;;;;;;;;;5046004;28;19932;-60
2023/05/15 02:17:22;;;;;;;;;;;;;;;;;;5029739;28;19920;-60
2023/05/15 02:19:48;;;;;;;;;;;;;;;;;;5052125;28;19928;-60
2023/05/15 02:22:14;;;;;;;;;;;;;;;;;;5053114;28;19928;-60
2023/05/15 02:24:40;;;;;;;;;;;;;;;;;;5052928;28;19921;-63
2023/05/15 02:27:06;;;;;;;;;;;;;;;;;;5051161;28;19929;-64
2023/05/15 02:29:32;;;;;;;;;;;;;;;;;;5055388;28;19979;-63
2023/05/15 02:31:57;;;;;;;;;;;;;;;;;;5038829;28;19920;-63
2023/05/15 02:34:23;;;;;;;;;;;;;;;;;;5051271;28;20823;-65
2023/05/15 02:36:49;;;;;;;;;;;;;;;;;;5050900;28;19928;-64
2023/05/15 02:39:15;;;;;;;;;;;;;;;;;;5051247;28;20360;-64
2023/05/15 02:41:41;;;;;;;;;;;;;;;;;;5033605;28;19927;-65
2023/05/15 02:44:07;;;;;;;;;;;;;;;;;;5034231;28;20031;-65
2023/05/15 02:46:33;;;;;;;;;;;;;;;;;;5049876;28;19931;-64
2023/05/15 02:48:59;;;;;;;;;;;;;;;;;;5016634;28;19933;-64
2023/05/15 02:51:25;;;;;;;;;;;;;;;;;;5049405;28;21827;-64
2023/05/15 02:53:51;;;;;;;;;;;;;;;;;;5053569;28;19966;-63
2023/05/15 02:56:17;;;;;;;;;;;;;;;;;;5053313;28;19924;-64
2023/05/15 02:58:43;;;;;;;;;;;;;;;;;;5051516;28;19975;-64
2023/05/15 03:01:09;;;;;;;;;;;;;;;;;;5051737;28;19921;-64
2023/05/15 03:03:35;;;;;;;;;;;;;;;;;;5052378;28;19920;-63
2023/05/15 03:06:01;;;;;;;;;;;;;;;;;;5080856;22;19982;-66
2023/05/15 03:08:27;;;;;;;;;;;;;;;;;;5022487;28;19925;-66
2023/05/15 03:10:52;;;;;;;;;;;;;;;;;;5056522;28;19968;-66
2023/05/15 03:13:18;;;;;;;;;;;;;;;;;;5046694;28;19998;-66
2023/05/15 03:15:44;;;;;;;;;;;;;;;;;;5046199;28;19924;-66
2023/05/15 03:18:10;;;;;;;;;;;;;;;;;;5030232;28;20400;-66
2023/05/15 03:20:36;;;;;;;;;;;;;;;;;;5031946;28;19921;-66
2023/05/15 03:23:02;;;;;;;;;;;;;;;;;;5038591;28;19920;-66
2023/05/15 03:25:28;;;;;;;;;;;;;;;;;;5030159;28;19926;-66
2023/05/15 03:27:54;;;;;;;;;;;;;;;;;;5030692;28;19967;-66
2023/05/15 03:30:20;;;;;;;;;;;;;;;;;;5030712;28;19925;-66
2023/05/15 03:32:46;;;;;;;;;;;;;;;;;;5048265;28;19936;-66
2023/05/15 03:35:11;;;;;;;;;;;;;;;;;;5039973;28;19929;-66
2023/05/15 03:37:37;;;;;;;;;;;;;;;;;;5033975;28;20401;-66
2023/05/15 03:40:03;;;;;;;;;;;;;;;;;;5023527;28;19960;-66
2023/05/15 03:42:29;;;;;;;;;;;;;;;;;;5027597;28;19936;-68
2023/05/15 03:44:55;;;;;;;;;;;;;;;;;;5018213;28;19924;-66
2023/05/15 03:47:21;;;;;;;;;;;;;;;;;;5027042;28;20554;-66
2023/05/15 03:49:47;;;;;;;;;;;;;;;;;;5039072;28;19971;-66
2023/05/15 03:52:13;;;;;;;;;;;;;;;;;;5040198;28;20018;-66
2023/05/15 03:54:39;;;;;;;;;;;;;;;;;;5030726;28;20374;-66
2023/05/15 03:57:05;;;;;;;;;;;;;;;;;;5050393;28;19921;-66
2023/05/15 03:59:31;;;;;;;;;;;;;;;;;;5046157;28;20273;-66
2023/05/15 04:01:57;;;;;;;;;;;;;;;;;;5043144;28;19929;-66
2023/05/15 04:04:23;;;;;;;;;;;;;;;;;;5034827;28;19920;-66
2023/05/15 04:06:49;;;;;;;;;;;;;;;;;;5042999;28;20394;-66
2023/05/15 04:09:15;;;;;;;;;;;;;;;;;;5043321;28;20012;-66
2023/05/15 04:11:40;;;;;;;;;;;;;;;;;;5031300;28;20597;-66
2023/05/15 04:14:06;;;;;;;;;;;;;;;;;;5040801;28;19928;-66
2023/05/15 04:16:32;;;;;;;;;;;;;;;;;;5041844;28;19955;-66
2023/05/15 04:18:58;;;;;;;;;;;;;;;;;;5044692;28;20007;-66
2023/05/15 04:21:24;;;;;;;;;;;;;;;;;;5026213;28;20011;-66
2023/05/15 04:23:50;;;;;;;;;;;;;;;;;;5029778;28;19952;-66
2023/05/15 04:26:16;;;;;;;;;;;;;;;;;;5042682;28;20428;-66
2023/05/15 04:28:42;;;;;;;;;;;;;;;;;;5043430;28;20008;-66
2023/05/15 04:31:08;;;;;;;;;;;;;;;;;;5046398;28;19932;-66
2023/05/15 04:33:34;;;;;;;;;;;;;;;;;;5042401;28;19936;-66
2023/05/15 04:36:00;;;;;;;;;;;;;;;;;;5040686;28;20445;-66
2023/05/15 04:38:26;;;;;;;;;;;;;;;;;;5027686;28;20472;-66
2023/05/15 04:40:52;;;;;;;;;;;;;;;;;;5040904;28;19925;-66
2023/05/15 04:43:18;;;;;;;;;;;;;;;;;;5038982;28;19928;-66
2023/05/15 04:45:44;;;;;;;;;;;;;;;;;;5041296;28;19959;-66
2023/05/15 04:48:10;;;;;;;;;;;;;;;;;;5047882;28;19926;-68
2023/05/15 04:50:36;;;;;;;;;;;;;;;;;;5031712;28;20275;-67
2023/05/15 04:53:02;;;;;;;;;;;;;;;;;;5039879;28;20391;-66
2023/05/15 04:55:28;;;;;;;;;;;;;;;;;;5028814;28;19967;-66
2023/05/15 04:57:54;;;;;;;;;;;;;;;;;;5047773;28;19925;-66
2023/05/15 05:00:20;;;;;;;;;;;;;;;;;;5036997;28;19975;-66
2023/05/15 05:02:46;;;;;;;;;;;;;;;;;;5043316;28;19921;-66
2023/05/15 05:05:13;;;;;;;;;;;;;;;;;;5034609;28;19924;-66
2023/05/15 05:07:39;;;;;;;;;;;;;;;;;;5043077;28;19948;-66
2023/05/15 05:10:05;;;;;;;;;;;;;;;;;;5045578;28;19925;-66
2023/05/15 05:12:31;;;;;;;;;;;;;;;;;;5042742;28;20581;-66
2023/05/15 05:14:57;;;;;;;;;;;;;;;;;;5048696;28;19979;-66
2023/05/15 05:17:23;;;;;;;;;;;;;;;;;;5041566;28;20399;-66
2023/05/15 05:19:49;;;;;;;;;;;;;;;;;;5033568;28;19929;-68
2023/05/15 05:22:15;;;;;;;;;;;;;;;;;;5036316;28;19924;-66
2023/05/15 05:24:40;;;;;;;;;;;;;;;;;;5037104;28;19922;-66
2023/05/15 05:27:06;;;;;;;;;;;;;;;;;;5042517;28;20445;-66
2023/05/15 05:29:32;;;;;;;;;;;;;;;;;;5011477;28;20543;-66
2023/05/15 05:31:58;;;;;;;;;;;;;;;;;;5034531;28;20011;-68
2023/05/15 05:34:24;;;;;;;;;;;;;;;;;;5057711;28;19976;-68
2023/05/15 05:36:50;;;;;;;;;;;;;;;;;;5020666;28;20322;-66
2023/05/15 05:39:16;;;;;;;;;;;;;;;;;;5032632;28;19925;-66
2023/05/15 05:41:42;;;;;;;;;;;;;;;;;;5024558;28;19967;-66
2023/05/15 05:44:08;;;;;;;;;;;;;;;;;;5028371;28;19929;-66
2023/05/15 05:46:34;;;;;;;;;;;;;;;;;;5029458;28;19928;-66
2023/05/15 05:48:59;;;;;;;;;;;;;;;;;;5032695;28;19965;-66
2023/05/15 05:51:25;;;;;;;;;;;;;;;;;;5035883;28;19984;-66
2023/05/15 05:53:51;;;;;;;;;;;;;;;;;;5009326;28;19930;-66
2023/05/15 05:56:17;;;;;;;;;;;;;;;;;;5014501;28;19940;-66
2023/05/15 05:58:43;;;;;;;;;;;;;;;;;;5025304;28;19921;-66
2023/05/15 06:01:09;;;;;;;;;;;;;;;;;;5010847;28;20003;-66
2023/05/15 06:03:35;;;;;;;;;;;;;;;;;;5034959;28;19929;-66
2023/05/15 06:06:01;;;;;;;;;;;;;;;;;;5024669;28;19921;-66
2023/05/15 06:08:27;;;;;;;;;;;;;;;;;;5019304;28;19934;-66
2023/05/15 06:10:53;;;;;;;;;;;;;;;;;;5027963;28;19999;-66
2023/05/15 06:13:19;;;;;;;;;;;;;;;;;;5029225;28;20004;-66
2023/05/15 06:15:46;;;;;;;;;;;;;;;;;;5030187;28;20486;-67
2023/05/15 06:18:12;;;;;;;;;;;;;;;;;;5025458;28;20011;-66
2023/05/15 06:20:37;;;;;;;;;;;;;;;;;;5024230;28;19999;-66
2023/05/15 06:23:03;;;;;;;;;;;;;;;;;;5030531;28;19920;-66
2023/05/15 06:25:29;;;;;;;;;;;;;;;;;;5039309;28;19925;-67
2023/05/15 06:27:55;;;;;;;;;;;;;;;;;;5028146;28;19928;-67
2023/05/15 06:30:21;;;;;;;;;;;;;;;;;;5018473;28;19968;-66
2023/05/15 06:32:47;;;;;;;;;;;;;;;;;;5045476;28;20035;-66
2023/05/15 06:35:13;;;;;;;;;;;;;;;;;;5044932;28;20024;-66
2023/05/15 06:37:39;;;;;;;;;;;;;;;;;;5035075;28;20457;-66
2023/05/15 06:40:05;;;;;;;;;;;;;;;;;;5051392;28;19921;-67
2023/05/15 06:42:31;;;;;;;;;;;;;;;;;;5050098;28;19927;-67
2023/05/15 06:44:57;;;;;;;;;;;;;;;;;;5039721;28;20412;-67
2023/05/15 06:47:23;;;;;;;;;;;;;;;;;;5048528;28;20519;-67
2023/05/15 06:49:48;;;;;;;;;;;;;;;;;;5045219;28;19921;-67
2023/05/15 06:52:14;;;;;;;;;;;;;;;;;;5044066;28;19929;-67
2023/05/15 06:54:41;;;;;;;;;;;;;;;;;;5037607;28;19925;-67
2023/05/15 06:57:07;;;;;;;;;;;;;;;;;;5033287;28;19925;-66
2023/05/15 06:59:34;;;;;;;;;;;;;;;;;;5041405;28;19920;-66
2023/05/15 07:02:00;;;;;;;;;;;;;;;;;;5024710;28;19996;-66
2023/05/15 07:04:26;;;;;;;;;;;;;;;;;;5025272;28;20479;-66
2023/05/15 07:06:52;;;;;;;;;;;;;;;;;;5034305;28;19929;-67
2023/05/15 07:09:18;;;;;;;;;;;;;;;;;;5030157;28;20333;-67
2023/05/15 07:11:44;;;;;;;;;;;;;;;;;;5027981;28;19929;-67
2023/05/15 07:14:10;;;;;;;;;;;;;;;;;;5019666;28;20023;-67
2023/05/15 07:16:36;;;;;;;;;;;;;;;;;;5022336;28;19925;-66
2023/05/15 07:19:02;;;;;;;;;;;;;;;;;;5028586;28;19970;-66
2023/05/15 07:21:27;;;;;;;;;;;;;;;;;;5019539;28;20294;-67
2023/05/15 07:23:53;;;;;;;;;;;;;;;;;;5037392;28;19921;-67
2023/05/15 07:26:20;;;;;;;;;;;;;;;;;;5036413;28;19925;-67
2023/05/15 07:28:46;;;;;;;;;;;;;;;;;;5043401;28;20302;-67
2023/05/15 07:31:12;;;;;;;;;;;;;;;;;;5006825;28;19933;-67
2023/05/15 07:33:37;;;;;;;;;;;;;;;;;;5027637;28;19979;-67
2023/05/15 07:36:03;;;;;;;;;;;;;;;;;;5039401;28;20594;-67
2023/05/15 07:38:29;;;;;;;;;;;;;;;;;;5045092;28;19920;-67
2023/05/15 07:40:55;;;;;;;;;;;;;;;;;;5021871;28;19921;-67
2023/05/15 07:43:21;;;;;;;;;;;;;;;;;;5035458;28;19922;-67
2023/05/15 07:45:47;;;;;;;;;;;;;;;;;;5042152;28;20015;-67
2023/05/15 07:48:13;;;;;;;;;;;;;;;;;;5047575;28;19967;-67
2023/05/15 07:50:39;;;;;;;;;;;;;;;;;;5043314;28;19920;-67
2023/05/15 07:53:05;;;;;;;;;;;;;;;;;;5027404;28;20022;-67
2023/05/15 07:55:31;;;;;;;;;;;;;;;;;;5033462;28;19988;-70
2023/05/15 07:57:57;;;;;;;;;;;;;;;;;;5035425;28;19929;-69
2023/05/15 08:00:23;;;;;;;;;;;;;;;;;;5029053;28;19931;-68
2023/05/15 08:02:49;;;;;;;;;;;;;;;;;;5039071;28;20309;-68
2023/05/15 08:05:15;;;;;;;;;;;;;;;;;;5015427;28;19921;-68
2023/05/15 08:07:41;;;;;;;;;;;;;;;;;;5038131;28;20051;-69
2023/05/15 08:10:07;;;;;;;;;;;;;;;;;;5049761;28;19920;-68
2023/05/15 08:12:33;;;;;;;;;;;;;;;;;;5027403;28;19930;-67
2023/05/15 08:14:59;;;;;;;;;;;;;;;;;;5033882;28;19928;-67
2023/05/15 08:17:25;;;;;;;;;;;;;;;;;;5020512;28;19936;-68
2023/05/15 08:19:50;;;;;;;;;;;;;;;;;;5012868;28;20466;-67
2023/05/15 08:22:16;;;;;;;;;;;;;;;;;;5038017;28;20019;-68
2023/05/15 08:24:43;;;;;;;;;;;;;;;;;;5013347;28;19921;-68
2023/05/15 08:27:09;;;;;;;;;;;;;;;;;;5026311;28;19960;-68
2023/05/15 08:29:35;;;;;;;;;;;;;;;;;;5032598;28;19961;-68
2023/05/15 08:32:01;;;;;;;;;;;;;;;;;;5030104;28;19995;-67
2023/05/15 08:34:27;;;;;;;;;;;;;;;;;;5014826;28;19927;-67
2023/05/15 08:36:53;;;;;;;;;;;;;;;;;;5020026;28;20610;-67
2023/05/15 08:39:19;;;;;;;;;;;;;;;;;;5011354;28;19929;-67
2023/05/15 08:41:44;;;;;;;;;;;;;;;;;;5022217;28;19921;-68
2023/05/15 08:44:10;;;;;;;;;;;;;;;;;;5024106;28;20266;-68
2023/05/15 08:46:36;;;;;;;;;;;;;;;;;;5015880;28;19960;-67
2023/05/15 08:49:02;;;;;;;;;;;;;;;;;;5014204;28;19929;-67
2023/05/15 08:51:28;;;;;;;;;;;;;;;;;;5012528;28;19929;-67
2023/05/15 08:53:54;;;;;;;;;;;;;;;;;;5031930;28;19928;-67
2023/05/15 08:56:20;;;;;;;;;;;;;;;;;;5021961;28;20530;-67
2023/05/15 08:58:46;;;;;;;;;;;;;;;;;;5007327;28;19929;-67
2023/05/15 09:01:12;;;;;;;;;;;;;;;;;;5030300;28;19921;-68
2023/05/15 09:03:38;;;;;;;;;;;;;;;;;;5019575;28;19922;-67
2023/05/15 09:06:04;;;;;;;;;;;;;;;;;;5029226;28;19932;-67
2023/05/15 09:08:30;;;;;;;;;;;;;;;;;;5028680;28;19932;-67
2023/05/15 09:10:56;;;;;;;;;;;;;;;;;;5016461;28;19929;-67
2023/05/15 09:13:23;;;;;;;;;;;;;;;;;;5025023;28;20403;-67
2023/05/15 09:15:50;;;;;;;;;;;;;;;;;;5032230;28;20374;-67
2023/05/15 09:18:16;;;;;;;;;;;;;;;;;;5027566;28;20007;-67
2023/05/15 09:20:42;;;;;;;;;;;;;;;;;;5011324;28;20004;-67
2023/05/15 09:23:08;;;;;;;;;;;;;;;;;;5017183;28;20390;-68
2023/05/15 09:25:33;;;;;;;;;;;;;;;;;;5016379;28;20858;-68
2023/05/15 09:27:59;;;;;;;;;;;;;;;;;;5026421;28;19925;-68
2023/05/15 09:30:25;;;;;;;;;;;;;;;;;;5027125;28;20306;-68
2023/05/15 09:32:52;;;;;;;;;;;;;;;;;;5016821;28;19921;-68
2023/05/15 09:35:17;;;;;;;;;;;;;;;;;;5028770;28;20003;-68
2023/05/15 09:37:43;;;;;;;;;;;;;;;;;;5028069;28;20359;-68
2023/05/15 09:40:09;;;;;;;;;;;;;;;;;;5017542;28;19975;-68
2023/05/15 09:42:35;;;;;;;;;;;;;;;;;;5022235;28;20017;-68
2023/05/15 09:45:01;;;;;;;;;;;;;;;;;;5021834;28;20458;-68
2023/05/15 09:47:27;;;;;;;;;;;;;;;;;;5010989;28;19930;-68
2023/05/15 09:49:53;;;;;;;;;;;;;;;;;;5011060;28;19969;-68
2023/05/15 09:52:20;;;;;;;;;;;;;;;;;;5026162;28;19932;-68
2023/05/15 09:54:46;;;;;;;;;;;;;;;;;;5022709;28;19921;-68
2023/05/15 09:57:12;;;;;;;;;;;;;;;;;;5014202;28;19926;-68
2023/05/15 09:59:38;;;;;;;;;;;;;;;;;;5020034;28;19968;-68
2023/05/15 10:02:04;;;;;;;;;;;;;;;;;;5015709;28;19986;-68
2023/05/15 10:04:30;;;;;;;;;;;;;;;;;;5030540;28;19922;-67
2023/05/15 10:06:56;;;;;;;;;;;;;;;;;;5029841;28;19996;-67
2023/05/15 10:09:22;;;;;;;;;;;;;;;;;;5024334;28;19929;-67
2023/05/15 10:11:48;;;;;;;;;;;;;;;;;;5040355;28;19921;-67
2023/05/15 10:14:14;;;;;;;;;;;;;;;;;;5013441;28;20322;-67
2023/05/15 10:16:40;;;;;;;;;;;;;;;;;;5035591;28;19971;-68
2023/05/15 10:19:06;;;;;;;;;;;;;;;;;;5019195;28;19994;-68
2023/05/15 10:21:32;;;;;;;;;;;;;;;;;;5033022;28;19922;-68
2023/05/15 10:23:58;;;;;;;;;;;;;;;;;;5021627;28;19956;-67
2023/05/15 10:26:23;;;;;;;;;;;;;;;;;;5047064;28;20028;-67
2023/05/15 10:28:49;;;;;;;;;;;;;;;;;;5031296;28;20019;-67
2023/05/15 10:31:15;;;;;;;;;;;;;;;;;;5016062;28;19930;-67
2023/05/15 10:33:41;;;;;;;;;;;;;;;;;;5019452;28;19929;-68
2023/05/15 10:36:07;;;;;;;;;;;;;;;;;;5027863;28;19978;-68
2023/05/15 10:38:33;;;;;;;;;;;;;;;;;;5029247;28;19925;-67
2023/05/15 10:40:59;;;;;;;;;;;;;;;;;;5029282;28;20091;-67
2023/05/15 10:43:25;;;;;;;;;;;;;;;;;;5027683;28;19928;-68
2023/05/15 10:45:51;;;;;;;;;;;;;;;;;;5027689;28;19921;-68
2023/05/15 10:48:17;;;;;;;;;;;;;;;;;;5031178;28;19926;-68
2023/05/15 10:50:42;;;;;;;;;;;;;;;;;;5036048;28;19925;-68
2023/05/15 10:53:08;;;;;;;;;;;;;;;;;;5013379;28;20389;-68
2023/05/15 10:55:34;;;;;;;;;;;;;;;;;;5015421;28;19925;-68
2023/05/15 10:58:00;;;;;;;;;;;;;;;;;;5030858;28;20307;-68
2023/05/15 11:00:26;;;;;;;;;;;;;;;;;;5024963;28;19921;-68
2023/05/15 11:02:55;;;;;;;;;;;;;;;;;;5024230;28;19927;-68
2023/05/15 11:05:21;;;;;;;;;;;;;;;;;;5031514;28;20394;-68
2023/05/15 11:07:46;;;;;;;;;;;;;;;;;;5026897;28;19925;-68
2023/05/15 11:10:12;;;;;;;;;;;;;;;;;;5023451;28;19933;-68
2023/05/15 11:12:38;;;;;;;;;;;;;;;;;;5033894;28;19967;-68
2023/05/15 11:15:04;;;;;;;;;;;;;;;;;;5022155;28;19967;-68
2023/05/15 11:17:30;;;;;;;;;;;;;;;;;;5023655;28;20588;-68
2023/05/15 11:19:57;;;;;;;;;;;;;;;;;;5020320;28;20040;-68
2023/05/15 11:22:23;;;;;;;;;;;;;;;;;;5047493;28;19946;-68
2023/05/15 11:24:49;;;;;;;;;;;;;;;;;;5048794;28;20423;-68
2023/05/15 11:27:15;;;;;;;;;;;;;;;;;;5001650;28;20011;-68
2023/05/15 11:29:41;;;;;;;;;;;;;;;;;;5027576;28;20016;-68
2023/05/15 11:32:07;;;;;;;;;;;;;;;;;;5027548;28;20393;-68
2023/05/15 11:34:33;;;;;;;;;;;;;;;;;;5032598;28;19933;-67
2023/05/15 11:36:59;;;;;;;;;;;;;;;;;;5033596;28;19921;-67
2023/05/15 11:39:25;;;;;;;;;;;;;;;;;;5040440;28;19921;-67
2023/05/15 11:41:51;;;;;;;;;;;;;;;;;;5034126;28;20417;-67
2023/05/15 11:44:17;;;;;;;;;;;;;;;;;;5025167;28;19936;-67
2023/05/15 11:46:43;;;;;;;;;;;;;;;;;;5022401;28;19921;-68
2023/05/15 11:49:09;;;;;;;;;;;;;;;;;;5036009;28;20335;-68
2023/05/15 11:51:41;;;;;;;;;;;;;;;;;;5021867;28;19971;-69
2023/05/15 11:54:07;;;;;;;;;;;;;;;;;;5026484;28;19936;-68
2023/05/15 11:56:33;;;;;;;;;;;;;;;;;;5032112;28;19925;-68
2023/05/15 11:59:00;;;;;;;;;;;;;;;;;;5019288;28;19932;-68
2023/05/15 12:01:25;;;;;;;;;;;;;;;;;;5022568;28;19921;-68
2023/05/15 12:03:53;;;;;;;;;;;;;;;;;;5035803;28;19921;-68
2023/05/15 12:06:18;;;;;;;;;;;;;;;;;;5028540;28;19932;-69
2023/05/15 12:08:44;;;;;;;;;;;;;;;;;;5032561;28;19940;-68
2023/05/15 12:11:10;;;;;;;;;;;;;;;;;;5028981;28;19920;-68
2023/05/15 12:13:36;;;;;;;;;;;;;;;;;;5017761;28;20014;-69
2023/05/15 12:16:02;;;;;;;;;;;;;;;;;;5030558;28;19925;-68
2023/05/15 12:18:28;;;;;;;;;;;;;;;;;;5033754;28;20058;-68
2023/05/15 12:20:54;;;;;;;;;;;;;;;;;;5035934;28;19961;-68
2023/05/15 12:23:20;;;;;;;;;;;;;;;;;;5024072;28;20305;-68
2023/05/15 12:25:46;;;;;;;;;;;;;;;;;;5029621;28;19926;-68
2023/05/15 12:28:11;;;;;;;;;;;;;;;;;;5036237;28;19928;-68
2023/05/15 12:30:37;;;;;;;;;;;;;;;;;;5023306;28;20358;-68
2023/05/15 12:33:03;;;;;;;;;;;;;;;;;;5020840;28;19925;-68
2023/05/15 12:35:29;;;;;;;;;;;;;;;;;;5028905;28;20390;-68
2023/05/15 12:37:55;;;;;;;;;;;;;;;;;;5027754;28;19925;-68
2023/05/15 12:40:21;;;;;;;;;;;;;;;;;;5036615;28;19944;-68
2023/05/15 12:42:47;;;;;;;;;;;;;;;;;;5030113;28;19928;-68
2023/05/15 12:45:13;;;;;;;;;;;;;;;;;;5021438;28;19925;-68
2023/05/15 12:47:39;;;;;;;;;;;;;;;;;;5030313;28;19928;-68
2023/05/15 12:50:05;;;;;;;;;;;;;;;;;;5025122;28;19925;-68
2023/05/15 12:52:30;;;;;;;;;;;;;;;;;;5020692;28;20006;-68
2023/05/15 12:54:56;;;;;;;;;;;;;;;;;;5017629;28;19925;-68
2023/05/15 12:57:23;;;;;;;;;;;;;;;;;;5022062;28;19921;-69
2023/05/15 12:59:48;;;;;;;;;;;;;;;;;;5014917;28;19928;-69
2023/05/15 13:02:14;;;;;;;;;;;;;;;;;;5023999;28;19940;-68
2023/05/15 13:04:40;;;;;;;;;;;;;;;;;;5020167;28;19975;-68
2023/05/15 13:07:06;;;;;;;;;;;;;;;;;;5017124;28;19932;-68
2023/05/15 13:09:34;;;;;;;;;;;;;;;;;;5026172;28;20008;-69
2023/05/15 13:12:00;;;;;;;;;;;;;;;;;;5026504;28;19933;-68
2023/05/15 13:14:27;;;;;;;;;;;;;;;;;;5014327;28;19921;-68
2023/05/15 13:16:53;;;;;;;;;;;;;;;;;;5027722;28;19972;-69
2023/05/15 13:19:19;;;;;;;;;;;;;;;;;;5020609;28;19929;-68
2023/05/15 13:21:45;;;;;;;;;;;;;;;;;;5020407;28;19925;-68
2023/05/15 13:24:11;;;;;;;;;;;;;;;;;;5025966;28;19921;-68
2023/05/15 13:26:37;;;;;;;;;;;;;;;;;;5025647;28;19964;-68
2023/05/15 13:29:03;;;;;;;;;;;;;;;;;;5028269;28;20306;-68
2023/05/15 13:31:29;;;;;;;;;;;;;;;;;;5027490;28;19921;-68
2023/05/15 13:33:55;;;;;;;;;;;;;;;;;;5026960;28;20889;-67
2023/05/15 13:36:21;;;;;;;;;;;;;;;;;;5022864;28;19927;-68
2023/05/15 13:38:47;;;;;;;;;;;;;;;;;;5037766;28;20019;-68
2023/05/15 13:41:13;;;;;;;;;;;;;;;;;;5025596;28;19936;-68
2023/05/15 13:43:39;;;;;;;;;;;;;;;;;;5031734;28;19921;-69
2023/05/15 13:46:05;;;;;;;;;;;;;;;;;;5029933;28;20375;-70
2023/05/15 13:48:31;;;;;;;;;;;;;;;;;;5023651;28;19971;-69
2023/05/15 13:50:57;;;;;;;;;;;;;;;;;;5093511;22;19978;-61
2023/05/15 13:53:22;;;;;;;;;;;;;;;;;;5072493;28;19927;-61
2023/05/15 13:55:48;;;;;;;;;;;;;;;;;;5071147;28;20353;-61
2023/05/15 13:58:14;;;;;;;;;;;;;;;;;;5076694;28;19931;-61
2023/05/15 14:00:41;;;;;;;;;;;;;;;;;;5077457;28;19921;-61
2023/05/15 14:03:07;;;;;;;;;;;;;;;;;;5076392;28;19920;-61
2023/05/15 14:05:33;;;;;;;;;;;;;;;;;;5077814;28;20378;-61
2023/05/15 14:07:59;;;;;;;;;;;;;;;;;;5066112;28;19939;-61
2023/05/15 14:10:25;;;;;;;;;;;;;;;;;;5077171;28;19924;-61
2023/05/15 14:12:51;;;;;;;;;;;;;;;;;;5081337;28;19995;-61
2023/05/15 14:15:17;;;;;;;;;;;;;;;;;;5092005;28;20041;-61
2023/05/15 14:17:43;;;;;;;;;;;;;;;;;;5079657;28;20002;-61
2023/05/15 14:20:09;;;;;;;;;;;;;;;;;;5073253;28;19926;-61
2023/05/15 14:22:34;;;;;;;;;;;;;;;;;;5080527;28;19920;-60
2023/05/15 14:25:00;;;;;;;;;;;;;;;;;;5074087;28;20301;-61
2023/05/15 14:27:26;;;;;;;;;;;;;;;;;;5073564;28;20362;-60
2023/05/15 14:29:52;;;;;;;;;;;;;;;;;;5066625;28;19924;-61
2023/05/15 14:32:18;;;;;;;;;;;;;;;;;;5076170;28;19946;-61
2023/05/15 14:34:44;;;;;;;;;;;;;;;;;;5083439;28;19959;-60
2023/05/15 14:37:10;;;;;;;;;;;;;;;;;;5071359;28;20391;-61
2023/05/15 14:39:36;;;;;;;;;;;;;;;;;;5080513;28;19920;-61
2023/05/15 14:42:02;;;;;;;;;;;;;;;;;;5069819;28;19927;-60
2023/05/15 14:44:28;;;;;;;;;;;;;;;;;;5070804;28;20300;-61
2023/05/15 14:46:54;;;;;;;;;;;;;;;;;;5078639;28;19920;-61
2023/05/15 14:49:20;;;;;;;;;;;;;;;;;;5073193;28;20625;-60
2023/05/15 14:51:46;;;;;;;;;;;;;;;;;;5077318;28;19928;-61
2023/05/15 14:54:12;;;;;;;;;;;;;;;;;;5080737;28;19927;-61
2023/05/15 14:56:37;;;;;;;;;;;;;;;;;;5077474;28;19921;-61
2023/05/15 14:59:03;;;;;;;;;;;;;;;;;;5069326;28;20292;-64
2023/05/15 15:01:30;;;;;;;;;;;;;;;;;;5067995;28;19932;-64
2023/05/15 15:03:55;;;;;;;;;;;;;;;;;;5061901;28;19927;-64
2023/05/15 15:06:21;;;;;;;;;;;;;;;;;;5082178;28;20010;-64
2023/05/15 15:08:47;;;;;;;;;;;;;;;;;;5075728;28;19927;-64
2023/05/15 15:11:13;;;;;;;;;;;;;;;;;;5071349;28;20268;-64
2023/05/15 15:13:39;;;;;;;;;;;;;;;;;;5078645;28;19935;-64
2023/05/15 15:16:06;;;;;;;;;;;;;;;;;;5067461;28;19920;-64
2023/05/15 15:18:33;;;;;;;;;;;;;;;;;;5088240;28;19920;-64
2023/05/15 15:20:59;;;;;;;;;;;;;;;;;;5072025;28;19920;-64
2023/05/15 15:23:25;;;;;;;;;;;;;;;;;;5083624;28;19977;-64
2023/05/15 15:25:51;;;;;;;;;;;;;;;;;;5091435;28;19942;-64
2023/05/15 15:28:17;;;;;;;;;;;;;;;;;;5088341;28;20007;-64
2023/05/15 15:30:43;;;;;;;;;;;;;;;;;;5088389;28;20007;-64
2023/05/15 15:33:09;;;;;;;;;;;;;;;;;;5060582;28;20005;-63
2023/05/15 15:35:35;;;;;;;;;;;;;;;;;;5091842;28;20485;-63
2023/05/15 15:38:01;;;;;;;;;;;;;;;;;;5092300;28;19920;-64
2023/05/15 15:40:28;;;;;;;;;;;;;;;;;;5085378;28;19954;-64
2023/05/15 15:42:54;;;;;;;;;;;;;;;;;;5091102;28;19920;-64
2023/05/15 15:45:20;;;;;;;;;;;;;;;;;;5079710;28;19935;-64
2023/05/15 15:47:46;;;;;;;;;;;;;;;;;;5084303;28;19969;-64
2023/05/15 15:50:12;;;;;;;;;;;;;;;;;;5071759;28;20274;-64
2023/05/15 15:52:37;;;;;;;;;;;;;;;;;;5082168;28;19920;-64
2023/05/15 15:55:03;;;;;;;;;;;;;;;;;;5079940;28;19924;-65
2023/05/15 15:57:30;;;;;;;;;;;;;;;;;;5069634;28;20370;-65
2023/05/15 15:59:56;;;;;;;;;;;;;;;;;;5036336;28;20293;-65
2023/05/15 16:02:21;;;;;;;;;;;;;;;;;;5067785;28;19921;-65
2023/05/15 16:04:47;;;;;;;;;;;;;;;;;;5070230;28;20015;-65
2023/05/15 16:07:13;;;;;;;;;;;;;;;;;;5074231;28;19925;-65
2023/05/15 16:09:39;;;;;;;;;;;;;;;;;;5085804;28;19924;-65
2023/05/15 16:12:05;;;;;;;;;;;;;;;;;;5070955;28;19928;-65
2023/05/15 16:14:31;;;;;;;;;;;;;;;;;;5074025;28;19932;-65
2023/05/15 16:16:57;;;;;;;;;;;;;;;;;;5075641;28;20354;-65
2023/05/15 16:19:23;;;;;;;;;;;;;;;;;;5070431;28;19973;-65
2023/05/15 16:21:49;;;;;;;;;;;;;;;;;;5077802;28;19966;-65
2023/05/15 16:24:15;;;;;;;;;;;;;;;;;;5072777;28;19990;-65
2023/05/15 16:26:41;;;;;;;;;;;;;;;;;;5071228;28;19920;-64
2023/05/15 16:29:07;;;;;;;;;;;;;;;;;;5072619;28;19931;-65
2023/05/15 16:31:33;;;;;;;;;;;;;;;;;;5072186;28;20368;-65
2023/05/15 16:33:59;;;;;;;;;;;;;;;;;;5071765;28;20019;-64
2023/05/15 16:36:25;;;;;;;;;;;;;;;;;;5073291;28;19920;-65